Time;durP1;ratioP1;P1;durP2;ratioP2;P2;SDS_P1;SDS_P2;PMS_P1;PMS_P2;Temp;Humidity;BMP_temperature;BMP_pressure;BME280_temperature;BME280_humidity;BME280_pressure;Samples;Min_cycle;Max_cycle;Signal;HPM_P1;HPM_P2
2022/04/23 00:01:10;;;;;;;14.45;12.02;;;10.70;99.90;;;;;;15551136;22;20098;-83
2022/04/23 00:07:12;;;;;;;14.45;12.00;;;10.80;99.90;;;;;;15550306;22;20034;-82
2022/04/23 00:13:14;;;;;;;13.35;11.82;;;10.80;99.90;;;;;;15552066;22;20515;-83
2022/04/23 00:19:19;;;;;;;16.85;11.15;;;10.90;99.90;;;;;;15551103;22;20042;-82
2022/04/23 00:25:21;;;;;;;14.18;10.50;;;10.90;99.90;;;;;;15554190;22;20027;-82
2022/04/23 00:31:24;;;;;;;14.50;10.13;;;10.90;99.90;;;;;;15551832;22;20028;-82
2022/04/23 00:37:26;;;;;;;12.02;9.52;;;11.00;99.90;;;;;;15551711;22;20464;-83
2022/04/23 00:43:33;;;;;;;12.18;9.50;;;11.00;99.90;;;;;;15546560;22;20019;-82
2022/04/23 00:49:35;;;;;;;10.23;8.48;;;10.90;99.90;;;;;;15552420;22;20030;-81
2022/04/23 00:55:37;;;;;;;13.50;9.82;;;10.90;99.90;;;;;;15556023;22;20109;-82
2022/04/23 01:01:41;;;;;;;13.88;9.02;;;10.90;99.90;;;;;;15555580;22;20511;-81
2022/04/23 01:07:44;;;;;;;10.02;8.25;;;10.90;99.90;;;;;;15552337;22;20023;-82
2022/04/23 01:13:46;;;;;;;11.13;8.73;;;10.80;99.90;;;;;;15551074;22;20028;-82
2022/04/23 01:19:47;;;;;;;11.25;9.02;;;10.80;99.90;;;;;;15552585;22;20575;-83
2022/04/23 01:25:52;;;;;;;11.85;9.23;;;10.80;99.90;;;;;;15553259;22;20046;-82
2022/04/23 01:31:54;;;;;;;11.05;8.98;;;10.80;99.90;;;;;;15554298;22;20372;-81
2022/04/23 01:37:56;;;;;;;11.98;9.43;;;10.70;99.90;;;;;;15555138;22;20054;-82
2022/04/23 01:43:58;;;;;;;12.35;9.25;;;10.70;99.90;;;;;;15558721;22;20023;-83
2022/04/23 01:50:00;;;;;;;12.05;8.90;;;10.70;99.90;;;;;;15559981;22;20023;-83
2022/04/23 01:56:02;;;;;;;10.77;8.57;;;10.70;99.90;;;;;;15558229;22;20019;-83
2022/04/23 02:02:04;;;;;;;10.90;8.95;;;10.70;99.90;;;;;;15553970;22;20020;-82
2022/04/23 02:08:08;;;;;;;13.50;9.07;;;10.60;99.90;;;;;;15561021;22;20020;-83
2022/04/23 02:14:10;;;;;;;12.00;8.25;;;10.60;99.90;;;;;;15577760;22;20028;-83
2022/04/23 02:20:15;;;;;;;9.98;8.40;;;10.60;99.90;;;;;;15570495;22;20031;-82
2022/04/23 02:26:17;;;;;;;11.88;9.30;;;10.60;99.90;;;;;;15539081;22;20647;-83
2022/04/23 02:32:20;;;;;;;10.35;8.93;;;10.50;99.90;;;;;;15557115;22;20522;-83
2022/04/23 02:38:21;;;;;;;11.55;8.90;;;10.50;99.90;;;;;;15554437;22;20070;-82
2022/04/23 02:44:23;;;;;;;12.82;9.18;;;10.50;99.90;;;;;;15555305;22;20095;-81
2022/04/23 02:50:27;;;;;;;13.88;9.45;;;10.50;99.90;;;;;;15556552;22;20062;-82
2022/04/23 02:56:33;;;;;;;11.32;8.35;;;10.50;99.90;;;;;;15558617;22;20084;-82
2022/04/23 03:02:36;;;;;;;10.55;8.18;;;10.40;99.90;;;;;;15554344;22;20149;-83
2022/04/23 03:08:39;;;;;;;13.05;8.00;;;10.40;99.90;;;;;;15551900;22;20095;-82
2022/04/23 03:14:40;;;;;;;12.68;8.68;;;10.40;99.90;;;;;;15552591;22;20085;-82
2022/04/23 03:20:44;;;;;;;11.30;8.60;;;10.40;99.90;;;;;;15553429;22;20404;-83
2022/04/23 03:26:46;;;;;;;10.85;7.82;;;10.30;99.90;;;;;;15555759;22;20026;-82
2022/04/23 03:32:48;;;;;;;11.52;7.88;;;10.20;99.90;;;;;;15557544;22;20024;-83
2022/04/23 03:38:49;;;;;;;12.07;8.95;;;10.10;99.90;;;;;;15553277;22;20114;-82
2022/04/23 03:44:51;;;;;;;12.90;8.63;;;10.10;99.90;;;;;;15551440;22;20034;-82
2022/04/23 03:50:53;;;;;;;14.07;8.35;;;9.90;99.90;;;;;;15550656;22;20027;-82
2022/04/23 03:56:55;;;;;;;12.02;8.63;;;9.80;99.90;;;;;;15554388;22;20140;-82
2022/04/23 04:02:57;;;;;;;15.35;9.52;;;9.70;99.90;;;;;;15551284;22;20028;-82
2022/04/23 04:09:00;;;;;;;12.90;8.98;;;9.60;99.90;;;;;;15551779;22;20024;-82
2022/04/23 04:15:03;;;;;;;13.38;8.80;;;9.60;99.90;;;;;;15548598;22;20110;-82
2022/04/23 04:21:05;;;;;;;14.73;9.07;;;9.60;99.90;;;;;;15552548;22;20047;-83
2022/04/23 04:27:07;;;;;;;12.88;8.38;;;9.50;99.90;;;;;;15546565;22;20015;-82
2022/04/23 04:33:09;;;;;;;14.10;8.77;;;9.50;99.90;;;;;;15553837;22;20102;-82
2022/04/23 04:39:11;;;;;;;12.82;8.95;;;9.40;99.90;;;;;;15551273;22;20341;-82
2022/04/23 04:45:13;;;;;;;12.77;8.63;;;9.40;99.90;;;;;;15551896;22;20472;-82
2022/04/23 04:51:15;;;;;;;12.25;8.80;;;9.50;99.90;;;;;;15554956;22;20802;-83
2022/04/23 04:57:17;;;;;;;11.80;8.63;;;9.40;99.90;;;;;;15556479;22;20043;-82
2022/04/23 05:03:19;;;;;;;12.05;8.23;;;9.50;99.90;;;;;;15555296;22;20023;-81
2022/04/23 05:09:22;;;;;;;12.02;8.05;;;9.50;99.90;;;;;;15556401;22;20404;-81
2022/04/23 05:15:24;;;;;;;12.30;8.27;;;9.50;99.90;;;;;;15560671;22;20082;-83
2022/04/23 05:21:26;;;;;;;16.10;8.82;;;9.50;99.90;;;;;;15572398;22;20027;-82
2022/04/23 05:27:27;;;;;;;12.68;8.27;;;9.80;99.90;;;;;;15571188;22;20440;-82
2022/04/23 05:33:31;;;;;;;11.35;7.63;;;10.20;99.90;;;;;;15560873;22;20157;-82
2022/04/23 05:39:33;;;;;;;11.82;8.27;;;10.80;99.90;;;;;;15558746;22;20615;-83
2022/04/23 05:45:36;;;;;;;9.27;6.97;;;10.80;99.90;;;;;;15556370;22;20351;-81
2022/04/23 05:51:38;;;;;;;11.60;7.97;;;11.20;99.90;;;;;;15554243;22;20038;-81
2022/04/23 05:57:40;;;;;;;10.95;8.07;;;11.60;99.90;;;;;;15556951;22;20073;-82
2022/04/23 06:03:42;;;;;;;9.30;7.55;;;10.60;99.90;;;;;;15548059;22;20102;-82
2022/04/23 06:09:45;;;;;;;9.25;7.45;;;10.30;99.90;;;;;;15550749;22;20674;-81
2022/04/23 06:15:47;;;;;;;11.88;7.78;;;10.20;99.90;;;;;;15553582;22;20150;-82
2022/04/23 06:21:49;;;;;;;9.27;7.35;;;10.50;99.90;;;;;;15553511;22;20170;-82
2022/04/23 06:27:50;;;;;;;11.75;7.90;;;10.30;99.90;;;;;;15557383;22;20452;-83
2022/04/23 06:33:52;;;;;;;12.15;7.95;;;10.40;99.90;;;;;;15514221;22;20288;-82
2022/04/23 06:39:54;;;;;;;10.07;7.93;;;10.30;99.90;;;;;;15558206;22;20028;-81
2022/04/23 06:45:57;;;;;;;12.57;8.25;;;10.40;99.90;;;;;;15552257;22;20030;-83
2022/04/23 06:51:59;;;;;;;10.35;7.78;;;10.60;99.90;;;;;;15549865;22;20019;-82
2022/04/23 06:58:01;;;;;;;11.23;7.40;;;10.70;99.90;;;;;;15556761;22;20035;-83
2022/04/23 07:04:03;;;;;;;10.40;8.23;;;11.00;99.90;;;;;;15547626;22;20110;-82
2022/04/23 07:10:05;;;;;;;10.15;7.95;;;11.30;99.90;;;;;;15552543;22;20101;-82
2022/04/23 07:16:09;;;;;;;9.73;7.57;;;11.40;99.90;;;;;;15558922;22;20093;-82
2022/04/23 07:22:11;;;;;;;11.82;6.93;;;11.60;99.90;;;;;;15552522;22;20027;-82
2022/04/23 07:28:13;;;;;;;10.50;7.47;;;11.70;99.90;;;;;;15551283;22;20118;-83
2022/04/23 07:40:40;;;;;;;9.02;7.65;;;11.80;99.90;;;;;;15554110;22;20329;-82
2022/04/23 07:46:42;;;;;;;10.30;7.35;;;11.80;99.90;;;;;;15554543;22;20023;-82
2022/04/23 07:52:45;;;;;;;10.18;7.53;;;12.00;99.90;;;;;;15546541;22;20096;-82
2022/04/23 07:58:46;;;;;;;9.27;7.20;;;12.10;99.90;;;;;;15550920;22;20106;-82
2022/04/23 08:04:48;;;;;;;10.38;7.47;;;12.40;99.90;;;;;;15550452;22;20515;-83
2022/04/23 08:10:50;;;;;;;9.52;7.18;;;12.50;99.90;;;;;;15548950;22;20097;-82
2022/04/23 08:16:52;;;;;;;9.85;7.63;;;12.40;99.90;;;;;;15550924;22;20031;-82
2022/04/23 08:22:54;;;;;;;9.32;7.50;;;12.40;99.90;;;;;;15557044;22;20027;-83
2022/04/23 08:35:16;;;;;;;8.65;7.25;;;12.60;99.90;;;;;;15551490;22;20054;-83
2022/04/23 08:41:18;;;;;;;8.52;6.85;;;12.80;99.90;;;;;;15547825;22;20149;-82
2022/04/23 08:47:24;;;;;;;8.48;6.50;;;12.90;99.90;;;;;;15546697;22;20484;-83
2022/04/23 08:53:31;;;;;;;7.50;5.72;;;13.10;99.90;;;;;;15522223;22;20039;-82
2022/04/23 08:59:35;;;;;;;10.65;5.68;;;13.50;99.90;;;;;;15548116;22;20517;-83
2022/04/23 09:05:37;;;;;;;8.88;6.40;;;13.80;99.90;;;;;;15554826;22;20019;-83
2022/04/23 09:11:44;;;;;;;7.57;5.65;;;13.80;99.90;;;;;;15553966;22;20514;-84
2022/04/23 09:24:10;;;;;;;7.13;5.88;;;13.90;99.90;;;;;;15551866;22;20464;-83
2022/04/23 09:30:13;;;;;;;8.50;5.70;;;14.10;99.90;;;;;;15558686;22;20031;-82
2022/04/23 09:36:15;;;;;;;8.02;5.72;;;14.20;99.90;;;;;;15547423;22;20034;-83
2022/04/23 09:42:18;;;;;;;8.30;5.15;;;14.30;99.90;;;;;;15556466;22;20024;-83
2022/04/23 09:48:20;;;;;;;11.23;6.15;;;14.60;99.90;;;;;;15559330;22;20166;-84
2022/04/23 09:54:22;;;;;;;7.25;5.65;;;14.50;99.90;;;;;;15557310;22;20645;-83
2022/04/23 10:00:24;;;;;;;7.68;5.57;;;14.60;99.90;;;;;;15559151;22;20087;-83
2022/04/23 10:06:26;;;;;;;6.53;5.25;;;14.50;99.90;;;;;;15557898;22;20106;-83
2022/04/23 10:12:33;;;;;;;7.03;5.65;;;14.80;99.90;;;;;;15559605;22;20221;-83
2022/04/23 10:18:38;;;;;;;10.98;6.82;;;14.90;99.90;;;;;;15555249;22;20463;-83
2022/04/23 10:24:54;;;;;;;7.43;5.60;;;15.30;99.90;;;;;;15562091;22;20023;-84
2022/04/23 10:31:16;;;;;;;11.77;5.38;;;15.70;99.90;;;;;;15552818;22;20057;-84
2022/04/23 10:37:19;;;;;;;8.55;6.30;;;16.00;99.90;;;;;;15560071;22;20030;-84
2022/04/23 10:43:21;;;;;;;10.35;6.95;;;16.10;99.90;;;;;;15559057;22;20035;-83
2022/04/23 10:49:25;;;;;;;9.93;6.22;;;15.80;99.90;;;;;;15558544;22;20059;-83
2022/04/23 10:55:27;;;;;;;8.90;6.50;;;15.90;99.90;;;;;;15587243;22;20020;-83
2022/04/23 11:01:30;;;;;;;10.57;6.43;;;15.90;99.90;;;;;;15557269;22;20020;-84
2022/04/23 11:13:53;;;;;;;9.15;5.15;;;15.90;99.90;;;;;;15556126;22;20444;-83
2022/04/23 11:19:55;;;;;;;8.25;6.00;;;15.90;99.90;;;;;;15549318;22;20437;-84
2022/04/23 11:25:57;;;;;;;5.70;4.65;;;15.70;99.90;;;;;;15553706;22;20490;-83
2022/04/23 11:31:59;;;;;;;7.35;4.70;;;15.90;99.90;;;;;;15551093;22;20055;-83
2022/04/23 11:38:02;;;;;;;6.15;4.40;;;16.00;99.90;;;;;;15555410;22;20027;-83
2022/04/23 11:44:45;;;;;;;7.72;4.30;;;16.00;99.90;;;;;;15553533;22;20625;-84
2022/04/23 11:50:43;;;;;;;5.95;3.85;;;16.20;99.90;;;;;;15538496;22;20047;-83
2022/04/23 11:56:45;;;;;;;8.57;3.85;;;16.20;99.90;;;;;;15550813;22;20035;-83
2022/04/23 12:02:47;;;;;;;6.05;3.75;;;16.50;99.90;;;;;;15554421;22;20102;-83
2022/04/23 12:08:49;;;;;;;8.05;4.30;;;16.50;99.90;;;;;;15548025;22;20364;-83
2022/04/23 12:14:53;;;;;;;6.68;3.97;;;16.80;99.90;;;;;;15523110;22;20599;-84
2022/04/23 12:21:05;;;;;;;5.78;4.00;;;16.80;99.90;;;;;;15515104;22;20098;-84
2022/04/23 12:27:07;;;;;;;6.60;4.22;;;16.80;99.90;;;;;;15552249;22;20146;-83
2022/04/23 12:46:09;;;;;;;6.25;3.90;;;16.90;99.90;;;;;;15551171;22;20023;-82
2022/04/23 12:52:21;;;;;;;5.45;3.55;;;16.90;99.90;;;;;;15552251;22;20023;-83
2022/04/23 12:58:23;;;;;;;4.45;3.17;;;17.10;99.90;;;;;;15548237;22;20031;-84
2022/04/23 13:04:25;;;;;;;5.18;3.75;;;17.20;99.90;;;;;;15552275;22;20105;-84
2022/04/23 13:10:27;;;;;;;5.57;3.42;;;17.10;99.90;;;;;;15552926;22;20177;-83
2022/04/23 13:16:31;;;;;;;5.03;3.30;;;17.20;99.90;;;;;;15559162;22;20441;-84
2022/04/23 13:22:33;;;;;;;6.03;3.97;;;17.20;99.90;;;;;;15556545;22;20035;-84
2022/04/23 13:28:34;;;;;;;6.32;3.00;;;17.40;99.90;;;;;;15553120;22;20044;-84
2022/04/23 13:34:37;;;;;;;5.43;3.58;;;17.40;99.90;;;;;;15553406;22;20601;-83
2022/04/23 13:40:39;;;;;;;4.10;2.70;;;17.40;99.90;;;;;;15555409;22;20023;-84
2022/04/23 13:46:41;;;;;;;5.43;3.33;;;17.30;99.90;;;;;;15559094;22;20040;-83
2022/04/23 13:52:43;;;;;;;5.55;3.55;;;17.60;99.90;;;;;;15581803;22;20228;-84
2022/04/23 13:58:45;;;;;;;4.22;3.25;;;17.80;99.90;;;;;;15550855;22;20028;-84
2022/04/23 14:11:08;;;;;;;3.95;3.20;;;18.00;99.90;;;;;;15567046;22;20066;-83
2022/04/23 14:17:10;;;;;;;5.35;4.00;;;17.90;99.90;;;;;;15565158;22;20031;-83
2022/04/23 14:23:12;;;;;;;8.35;3.50;;;17.70;99.90;;;;;;15566446;22;20116;-83
2022/04/23 14:29:14;;;;;;;5.15;3.80;;;17.70;99.90;;;;;;15566172;22;20101;-83
2022/04/23 14:35:15;;;;;;;6.55;3.97;;;17.40;99.90;;;;;;15582455;22;20085;-83
2022/04/23 14:41:17;;;;;;;6.40;3.00;;;17.30;99.90;;;;;;15558506;22;20518;-83
2022/04/23 14:47:19;;;;;;;4.22;2.88;;;17.50;99.90;;;;;;15554619;22;20146;-84
2022/04/23 14:53:21;;;;;;;7.35;3.80;;;17.50;99.90;;;;;;15546128;22;20266;-84
2022/04/23 14:59:24;;;;;;;7.55;3.25;;;17.50;99.90;;;;;;15549557;22;20057;-82
2022/04/23 15:05:26;;;;;;;3.85;2.97;;;17.50;99.90;;;;;;15547553;22;20020;-84
2022/04/23 15:11:29;;;;;;;4.28;3.00;;;17.70;99.90;;;;;;15543088;22;20436;-84
2022/04/23 15:17:31;;;;;;;5.07;3.30;;;17.30;99.90;;;;;;15551538;22;20527;-83
2022/04/23 15:23:36;;;;;;;5.28;3.70;;;17.60;99.90;;;;;;15552471;22;20093;-84
2022/04/23 15:29:38;;;;;;;5.25;3.28;;;17.60;99.90;;;;;;15551205;22;20097;-83
2022/04/23 15:35:40;;;;;;;4.00;2.90;;;17.40;99.90;;;;;;15555584;22;20034;-83
2022/04/23 15:41:42;;;;;;;7.25;2.95;;;17.20;99.90;;;;;;15558258;22;20368;-84
2022/04/23 15:47:43;;;;;;;4.40;2.72;;;17.30;99.90;;;;;;15548405;22;20547;-83
2022/04/23 15:53:45;;;;;;;4.65;3.55;;;17.30;99.90;;;;;;15517398;22;20024;-83
2022/04/23 15:59:47;;;;;;;5.47;2.70;;;17.30;99.90;;;;;;15544883;22;20019;-83
2022/04/23 16:05:49;;;;;;;3.72;2.45;;;17.40;99.90;;;;;;15550889;22;20464;-85
2022/04/23 16:11:50;;;;;;;4.00;2.63;;;17.30;99.90;;;;;;15549509;22;20499;-84
2022/04/23 16:17:52;;;;;;;3.70;2.50;;;17.20;99.90;;;;;;15552772;22;20396;-84
2022/04/23 16:23:54;;;;;;;4.88;2.38;;;17.00;99.90;;;;;;15548513;22;20531;-83
2022/04/23 16:29:57;;;;;;;5.07;2.22;;;17.10;99.90;;;;;;15525769;22;20373;-84
2022/04/23 16:49:13;;;;;;;5.90;2.20;;;16.90;99.90;;;;;;15310566;23;20816;-82
2022/04/23 16:55:15;;;;;;;4.50;2.10;;;17.00;99.90;;;;;;15502605;22;20058;-84
2022/04/23 17:01:17;;;;;;;5.03;2.40;;;16.80;99.90;;;;;;15552719;22;20024;-83
2022/04/23 17:07:19;;;;;;;4.10;2.40;;;16.70;99.90;;;;;;15549555;22;20020;-82
2022/04/23 17:13:22;;;;;;;6.88;2.42;;;16.60;99.90;;;;;;15548305;22;20028;-83
2022/04/23 17:19:24;;;;;;;4.63;2.60;;;16.60;99.90;;;;;;15549369;22;20035;-85
2022/04/23 17:25:26;;;;;;;3.72;2.42;;;16.50;99.90;;;;;;15552067;22;20495;-81
2022/04/23 17:31:27;;;;;;;4.35;2.80;;;16.50;99.90;;;;;;15559366;22;20043;-84
2022/04/23 17:37:29;;;;;;;5.15;2.30;;;16.40;99.90;;;;;;15550355;22;20460;-84
2022/04/23 17:43:31;;;;;;;7.20;2.60;;;16.20;99.90;;;;;;15535441;22;20028;-84
2022/04/23 17:49:34;;;;;;;3.85;2.63;;;16.00;99.90;;;;;;15544829;22;20031;-83
2022/04/23 17:55:38;;;;;;;3.92;2.40;;;15.70;99.90;;;;;;15552436;22;20038;-84
2022/04/23 18:08:07;;;;;;;3.92;2.88;;;15.20;99.90;;;;;;15561000;22;20039;-82
2022/04/23 18:14:09;;;;;;;3.65;2.60;;;15.20;99.90;;;;;;15555188;22;20035;-83
2022/04/23 18:20:12;;;;;;;4.97;2.85;;;14.90;99.90;;;;;;15576572;22;20034;-84
2022/04/23 18:26:14;;;;;;;3.42;2.38;;;14.80;99.90;;;;;;15559076;22;20446;-82
2022/04/23 18:32:16;;;;;;;4.32;2.33;;;14.60;99.90;;;;;;15549810;22;20131;-83
2022/04/23 18:38:18;;;;;;;3.20;2.05;;;14.60;99.90;;;;;;15554630;22;20733;-83
2022/04/23 18:44:40;;;;;;;4.97;2.30;;;14.40;99.90;;;;;;15548515;22;20024;-81
2022/04/23 18:50:43;;;;;;;3.58;2.30;;;14.20;99.90;;;;;;15553442;22;20491;-83
2022/04/23 18:56:45;;;;;;;6.35;2.78;;;14.10;99.90;;;;;;15519918;22;20453;-83
2022/04/23 19:02:47;;;;;;;3.53;2.35;;;14.00;99.90;;;;;;15570559;22;20101;-82
2022/04/23 19:08:49;;;;;;;3.65;2.45;;;13.80;99.90;;;;;;15566319;22;20348;-84
2022/04/23 19:14:52;;;;;;;3.67;2.10;;;13.80;99.90;;;;;;15562115;22;20051;-84
2022/04/23 19:27:32;;;;;;;3.03;2.20;;;13.50;99.90;;;;;;15557730;22;20019;-81
2022/04/23 19:33:34;;;;;;;2.70;2.10;;;13.40;99.90;;;;;;15553806;22;20023;-82
2022/04/23 19:39:36;;;;;;;3.38;2.35;;;13.50;99.90;;;;;;15560732;22;20035;-83
2022/04/23 19:45:40;;;;;;;3.60;2.42;;;13.40;99.90;;;;;;15557082;22;20058;-82
2022/04/23 19:51:41;;;;;;;4.00;2.58;;;13.30;99.90;;;;;;15552844;22;20106;-82
2022/04/23 19:57:44;;;;;;;3.83;2.45;;;13.10;99.90;;;;;;15556213;22;20463;-83
2022/04/23 20:03:46;;;;;;;4.20;2.80;;;13.10;99.90;;;;;;15557473;22;20050;-82
2022/04/23 20:09:48;;;;;;;4.60;2.92;;;13.00;99.90;;;;;;15557675;22;20340;-82
2022/04/23 20:15:50;;;;;;;4.68;2.97;;;12.90;99.90;;;;;;15528122;22;20028;-83
2022/04/23 20:21:52;;;;;;;5.22;3.65;;;12.90;99.90;;;;;;15555995;22;20027;-84
2022/04/23 20:27:54;;;;;;;5.45;3.40;;;12.80;99.90;;;;;;15555684;22;20051;-81
2022/04/23 20:33:56;;;;;;;4.30;2.92;;;12.70;99.90;;;;;;15520424;22;20088;-82
2022/04/23 20:40:19;;;;;;;5.47;3.10;;;12.70;99.90;;;;;;15555007;22;20030;-83
2022/04/23 20:46:21;;;;;;;4.93;3.10;;;12.70;99.90;;;;;;15550959;22;20600;-83
2022/04/23 20:58:46;;;;;;;9.95;3.50;;;12.60;99.90;;;;;;15554930;22;20075;-82
2022/04/23 21:04:49;;;;;;;4.68;3.10;;;12.50;99.90;;;;;;15550789;22;20241;-83
2022/04/23 21:10:53;;;;;;;4.20;3.00;;;12.50;99.90;;;;;;15549789;22;20154;-82
2022/04/23 21:16:55;;;;;;;4.27;3.00;;;12.50;99.90;;;;;;15555658;22;20508;-83
2022/04/23 21:22:58;;;;;;;4.68;3.22;;;12.40;99.90;;;;;;15556864;22;20023;-83
2022/04/23 21:28:59;;;;;;;4.25;3.42;;;12.30;99.90;;;;;;15554728;22;20020;-83
2022/04/23 21:35:01;;;;;;;4.53;3.47;;;12.20;99.90;;;;;;15549439;22;20541;-82
2022/04/23 21:47:30;;;;;;;4.82;3.70;;;12.00;99.90;;;;;;15494190;22;20385;-83
2022/04/23 21:53:32;;;;;;;5.18;3.38;;;11.70;99.90;;;;;;15549974;22;20095;-83
2022/04/23 21:59:34;;;;;;;4.32;3.10;;;11.70;99.90;;;;;;15548643;22;20074;-83
2022/04/23 22:05:38;;;;;;;5.35;3.67;;;11.70;99.90;;;;;;15556866;22;20020;-81
2022/04/23 22:11:40;;;;;;;4.85;3.50;;;11.70;99.90;;;;;;15559437;22;20109;-83
2022/04/23 22:17:43;;;;;;;6.70;3.85;;;11.60;99.90;;;;;;15519645;22;20027;-81
2022/04/23 22:23:45;;;;;;;5.43;3.20;;;11.50;99.90;;;;;;15558580;22;20055;-82
2022/04/23 22:29:47;;;;;;;5.47;4.25;;;11.50;99.90;;;;;;15557434;22;20051;-82
2022/04/23 22:35:48;;;;;;;5.95;4.40;;;11.30;99.90;;;;;;15560335;22;20051;-81
2022/04/23 22:41:50;;;;;;;6.18;4.68;;;10.90;99.90;;;;;;15554301;22;20023;-81
2022/04/23 22:47:52;;;;;;;6.35;4.25;;;10.70;99.90;;;;;;15557833;22;20118;-83
2022/04/23 22:53:54;;;;;;;5.75;4.90;;;10.70;99.90;;;;;;15555426;22;20055;-81
2022/04/23 22:59:56;;;;;;;5.53;4.35;;;10.60;99.90;;;;;;15556272;22;20274;-81
2022/04/23 23:05:58;;;;;;;5.97;4.55;;;10.60;99.90;;;;;;15555828;22;20042;-82
2022/04/23 23:11:59;;;;;;;8.63;4.75;;;10.50;99.90;;;;;;15551729;22;20094;-83
2022/04/23 23:18:01;;;;;;;6.28;4.47;;;10.60;99.90;;;;;;15554980;22;20101;-80
2022/04/23 23:24:03;;;;;;;7.00;4.57;;;10.60;99.90;;;;;;15559947;22;20204;-82
2022/04/23 23:30:07;;;;;;;6.32;4.25;;;10.60;99.90;;;;;;15522131;22;20724;-81
2022/04/23 23:36:08;;;;;;;6.80;4.65;;;10.60;99.90;;;;;;15558692;22;20027;-81
2022/04/23 23:42:10;;;;;;;9.00;4.75;;;10.50;99.90;;;;;;15559980;22;20051;-82
2022/04/23 23:48:14;;;;;;;5.75;4.40;;;10.50;99.90;;;;;;15555502;22;20145;-80
2022/04/23 23:54:16;;;;;;;6.82;5.03;;;10.40;99.90;;;;;;15554440;22;20150;-81
